createdAt,value
2023-03-29T00:02:03.288Z,78.80
2023-03-29T00:04:30.086Z,79.80
2023-03-29T00:06:57.092Z,79.50
2023-03-29T00:09:26.472Z,79.00
2023-03-29T00:11:53.419Z,79.00
2023-03-29T00:14:20.200Z,80.00
2023-03-29T00:16:47.117Z,80.00
2023-03-29T00:19:14.097Z,80.00
2023-03-29T00:21:40.920Z,80.40
2023-03-29T00:24:07.805Z,79.50
2023-03-29T00:26:34.708Z,83.10
2023-03-29T00:29:01.500Z,83.60
2023-03-29T00:31:28.580Z,83.20
2023-03-29T00:33:55.806Z,84.00
2023-03-29T00:36:23.269Z,83.90
2023-03-29T00:38:50.171Z,83.50
2023-03-29T00:41:17.050Z,82.90
2023-03-29T00:44:00.272Z,82.80
2023-03-29T00:46:29.821Z,83.00
2023-03-29T00:49:12.708Z,83.10
2023-03-29T00:51:41.443Z,83.60
2023-03-29T00:54:14.643Z,83.10
2023-03-29T00:56:44.650Z,82.90
2023-03-29T00:59:17.692Z,82.70
2023-03-29T01:01:54.923Z,83.10
2023-03-29T01:04:31.698Z,83.50
2023-03-29T01:07:01.191Z,83.80
2023-03-29T01:09:31.045Z,84.00
2023-03-29T01:12:02.532Z,83.40
2023-03-29T01:14:40.031Z,83.50
2023-03-29T01:17:07.545Z,83.20
2023-03-29T01:19:44.019Z,83.50
2023-03-29T01:22:39.953Z,83.40
2023-03-29T01:25:13.178Z,83.50
2023-03-29T01:27:54.926Z,82.60
2023-03-29T01:30:43.762Z,81.90
2023-03-29T01:33:34.582Z,83.60
2023-03-29T01:36:17.396Z,84.60
2023-03-29T01:38:50.679Z,85.40
2023-03-29T01:41:17.587Z,85.70
2023-03-29T01:43:48.482Z,84.00
2023-03-29T01:46:41.295Z,85.20
2023-03-29T01:53:49.324Z,83.30
2023-03-29T01:56:23.011Z,82.70
2023-03-29T01:59:00.708Z,83.20
2023-03-29T02:01:33.053Z,82.50
2023-03-29T02:04:03.941Z,83.20
2023-03-29T02:06:34.760Z,83.00
2023-03-29T02:09:02.648Z,83.80
2023-03-29T02:11:29.647Z,84.50
2023-03-29T02:13:57.571Z,85.50
2023-03-29T02:16:24.582Z,85.70
2023-03-29T02:18:53.058Z,86.30
2023-03-29T02:21:34.056Z,87.20
2023-03-29T02:24:08.136Z,87.40
2023-03-29T02:26:36.118Z,87.80
2023-03-29T02:29:03.378Z,88.10
2023-03-29T02:31:40.507Z,88.80
2023-03-29T02:34:17.016Z,88.80
2023-03-29T02:36:52.777Z,89.00
2023-03-29T02:39:21.296Z,89.30
2023-03-29T02:41:50.377Z,89.40
2023-03-29T02:44:21.493Z,89.50
2023-03-29T02:46:53.158Z,89.80
2023-03-29T02:49:20.078Z,90.20
2023-03-29T02:51:53.107Z,90.30
2023-03-29T02:54:25.962Z,90.40
2023-03-29T02:57:02.566Z,90.30
2023-03-29T02:59:30.370Z,89.80
2023-03-29T03:01:58.340Z,89.70
2023-03-29T03:04:26.747Z,89.60
2023-03-29T03:06:53.671Z,89.80
2023-03-29T03:09:20.725Z,90.00
2023-03-29T03:11:47.755Z,90.20
2023-03-29T03:14:14.763Z,89.60
2023-03-29T03:16:42.003Z,89.20
2023-03-29T03:19:10.318Z,89.90
2023-03-29T03:21:37.745Z,90.30
2023-03-29T03:24:05.498Z,88.80
2023-03-29T03:26:32.588Z,89.30
2023-03-29T03:29:00.817Z,88.70
2023-03-29T03:31:46.725Z,88.60
2023-03-29T03:34:34.578Z,88.90
2023-03-29T03:37:02.202Z,88.90
2023-03-29T03:39:32.628Z,88.90
2023-03-29T03:42:00.922Z,89.60
2023-03-29T03:44:28.222Z,90.00
2023-03-29T03:47:24.725Z,90.00
2023-03-29T03:49:53.372Z,90.40
2023-03-29T03:52:23.631Z,90.10
2023-03-29T03:54:50.523Z,90.50
2023-03-29T03:57:37.926Z,91.30
2023-03-29T04:00:19.597Z,91.30
2023-03-29T04:02:56.520Z,91.00
2023-03-29T04:05:23.712Z,91.50
2023-03-29T04:07:50.964Z,91.70
2023-03-29T04:10:37.517Z,91.60
2023-03-29T04:13:11.941Z,91.40
2023-03-29T04:16:01.425Z,91.80
2023-03-29T04:18:28.822Z,91.80
2023-03-29T04:20:58.226Z,92.00
2023-03-29T04:23:26.343Z,92.00
2023-03-29T04:25:57.148Z,92.50
2023-03-29T04:28:56.502Z,92.30
2023-03-29T04:31:33.657Z,92.50
2023-03-29T04:34:12.304Z,92.60
2023-03-29T04:36:39.252Z,92.40
2023-03-29T04:39:12.416Z,92.60
2023-03-29T04:41:40.361Z,92.90
2023-03-29T04:44:36.870Z,92.80
2023-03-29T04:47:07.011Z,92.90
2023-03-29T04:49:53.527Z,93.00
2023-03-29T04:52:33.087Z,93.10
2023-03-29T04:55:01.762Z,92.90
2023-03-29T04:57:53.368Z,92.90
2023-03-29T05:00:27.320Z,93.40
2023-03-29T05:03:14.556Z,93.70
2023-03-29T05:05:54.135Z,94.30
2023-03-29T05:08:21.608Z,94.50
2023-03-29T05:11:11.909Z,94.70
2023-03-29T05:13:39.180Z,94.90
2023-03-29T05:16:07.702Z,95.00
2023-03-29T05:18:35.608Z,94.50
2023-03-29T05:21:04.329Z,94.40
2023-03-29T05:23:32.970Z,94.10
2023-03-29T05:26:18.141Z,94.20
2023-03-29T05:28:50.647Z,94.10
2023-03-29T05:31:17.672Z,93.90
2023-03-29T05:33:48.637Z,94.00
2023-03-29T05:36:18.748Z,93.60
2023-03-29T05:38:49.250Z,93.40
2023-03-29T05:41:17.892Z,93.80
2023-03-29T05:44:18.145Z,93.80
2023-03-29T05:46:49.234Z,93.30
2023-03-29T05:49:17.455Z,93.30
2023-03-29T05:52:01.007Z,92.70
2023-03-29T05:54:29.899Z,92.30
2023-03-29T05:56:57.153Z,92.20
2023-03-29T05:59:24.377Z,92.30
2023-03-29T06:01:51.919Z,91.90
2023-03-29T06:04:21.337Z,91.10
2023-03-29T06:07:12.411Z,91.50
2023-03-29T06:09:41.598Z,91.30
2023-03-29T06:12:08.922Z,90.90
2023-03-29T06:14:49.220Z,89.60
2023-03-29T06:17:22.318Z,89.90
2023-03-29T06:19:49.110Z,89.60
2023-03-29T06:22:17.625Z,89.60
2023-03-29T06:24:44.403Z,89.80
2023-03-29T06:27:21.520Z,88.80
2023-03-29T06:29:48.480Z,88.10
2023-03-29T06:32:15.912Z,87.90
2023-03-29T06:34:48.137Z,88.20
2023-03-29T06:37:29.088Z,86.80
2023-03-29T06:40:13.656Z,86.60
2023-03-29T06:42:43.309Z,85.90
2023-03-29T06:45:33.549Z,86.00
2023-03-29T06:48:04.525Z,86.10
2023-03-29T06:50:31.877Z,86.00
2023-03-29T06:53:10.268Z,85.80
2023-03-29T06:55:38.833Z,84.90
2023-03-29T06:58:38.181Z,85.60
2023-03-29T07:01:17.757Z,85.30
2023-03-29T07:03:50.318Z,84.30
2023-03-29T07:06:22.848Z,84.40
2023-03-29T07:08:52.317Z,83.80
2023-03-29T07:11:54.531Z,84.40
2023-03-29T07:14:26.297Z,83.70
2023-03-29T07:16:53.234Z,82.20
2023-03-29T07:19:30.098Z,82.30
2023-03-29T07:22:25.803Z,82.00
2023-03-29T07:24:57.035Z,81.50
2023-03-29T07:27:23.928Z,81.00
2023-03-29T07:29:51.444Z,81.50
2023-03-29T07:32:19.190Z,80.70
2023-03-29T07:34:48.317Z,79.80
2023-03-29T07:37:24.839Z,79.40
2023-03-29T07:39:53.439Z,79.50
2023-03-29T07:42:54.956Z,79.00
2023-03-29T07:45:26.762Z,78.80
2023-03-29T07:48:00.575Z,77.90
2023-03-29T07:50:34.644Z,77.00
2023-03-29T07:53:03.956Z,76.00
2023-03-29T07:55:32.389Z,74.90
2023-03-29T07:58:24.620Z,73.50
2023-03-29T08:00:51.491Z,72.00
2023-03-29T08:03:38.684Z,70.00
2023-03-29T08:06:06.843Z,66.30
2023-03-29T08:08:33.673Z,62.90
2023-03-29T08:11:08.884Z,63.10
2023-03-29T08:13:44.552Z,63.90
2023-03-29T08:16:37.445Z,63.60
2023-03-29T08:19:10.018Z,65.70
2023-03-29T08:21:57.537Z,66.30
2023-03-29T08:24:27.257Z,68.20
2023-03-29T08:26:58.702Z,68.20
2023-03-29T08:29:25.962Z,68.80
2023-03-29T08:31:52.847Z,69.80
2023-03-29T08:34:19.746Z,69.90
2023-03-29T08:36:56.100Z,68.00
2023-03-29T08:39:30.057Z,66.80
2023-03-29T08:42:57.005Z,64.00
2023-03-29T08:45:33.787Z,62.60
2023-03-29T08:48:16.547Z,61.50
2023-03-29T08:50:48.061Z,61.40
2023-03-29T08:53:24.340Z,61.60
2023-03-29T08:56:26.842Z,63.30
2023-03-29T08:58:55.906Z,64.10
2023-03-29T09:01:25.261Z,65.50
2023-03-29T09:04:18.880Z,66.10
2023-03-29T09:06:58.450Z,66.30
2023-03-29T09:09:34.427Z,68.00
2023-03-29T09:12:48.451Z,65.30
2023-03-29T09:15:19.801Z,65.40
2023-03-29T09:18:21.855Z,65.40
2023-03-29T09:20:58.921Z,64.70
2023-03-29T09:23:55.849Z,64.70
2023-03-29T09:26:59.012Z,65.30
2023-03-29T09:30:24.460Z,63.00
2023-03-29T09:33:20.988Z,62.80
2023-03-29T09:36:23.572Z,59.00
2023-03-29T09:38:54.362Z,56.90
2023-03-29T09:41:53.130Z,57.20
2023-03-29T09:44:31.319Z,54.50
2023-03-29T09:47:28.263Z,53.20
2023-03-29T09:50:27.229Z,48.60
2023-03-29T09:52:56.976Z,50.30
2023-03-29T09:55:29.240Z,51.10
2023-03-29T09:58:24.420Z,49.30
2023-03-29T10:00:58.282Z,49.10
2023-03-29T10:03:29.939Z,51.70
2023-03-29T10:06:09.686Z,54.30
2023-03-29T10:08:40.772Z,54.70
2023-03-29T10:11:36.971Z,55.90
2023-03-29T10:14:04.854Z,56.40
2023-03-29T10:16:41.902Z,57.80
2023-03-29T10:19:46.921Z,56.70
2023-03-29T10:22:22.778Z,57.10
2023-03-29T10:24:52.109Z,57.60
2023-03-29T10:27:30.643Z,56.80
2023-03-29T10:29:59.546Z,57.80
2023-03-29T10:32:36.899Z,56.00
2023-03-29T10:35:44.225Z,56.80
2023-03-29T10:38:22.808Z,55.30
2023-03-29T10:40:53.053Z,55.50
2023-03-29T10:43:19.852Z,55.00
2023-03-29T10:45:51.887Z,55.80
2023-03-29T10:48:19.360Z,58.50
2023-03-29T10:50:52.926Z,59.60
2023-03-29T10:53:26.166Z,59.70
2023-03-29T10:56:11.532Z,59.60
2023-03-29T10:58:53.308Z,58.60
2023-03-29T11:01:34.658Z,58.50
2023-03-29T11:04:38.948Z,58.50
2023-03-29T11:07:53.254Z,57.10
2023-03-29T11:10:32.217Z,59.40
2023-03-29T11:13:08.398Z,59.90
2023-03-29T11:15:57.264Z,59.30
2023-03-29T11:18:42.881Z,58.10
2023-03-29T11:21:33.401Z,58.30
2023-03-29T11:24:23.432Z,57.70
2023-03-29T11:27:05.348Z,58.50
2023-03-29T11:29:58.622Z,56.90
2023-03-29T11:32:50.823Z,60.30
2023-03-29T11:35:43.293Z,60.00
2023-03-29T11:38:25.114Z,59.30
2023-03-29T11:41:17.671Z,60.50
2023-03-29T11:43:49.735Z,61.60
2023-03-29T11:46:16.871Z,62.50
2023-03-29T11:48:59.235Z,62.40
2023-03-29T11:51:32.173Z,63.10
2023-03-29T11:54:17.657Z,62.30
2023-03-29T11:56:46.730Z,63.70
2023-03-29T11:59:30.143Z,63.80
2023-03-29T12:02:12.575Z,64.80
2023-03-29T12:04:45.893Z,65.90
2023-03-29T12:07:23.041Z,66.40
2023-03-29T12:10:05.046Z,66.80
2023-03-29T12:13:02.102Z,67.20
2023-03-29T12:15:38.292Z,66.80
2023-03-29T12:18:44.115Z,66.00
2023-03-29T12:21:19.944Z,66.70
2023-03-29T12:23:47.758Z,65.70
2023-03-29T12:26:17.547Z,65.80
2023-03-29T12:29:10.218Z,66.00
2023-03-29T12:32:01.545Z,66.50
2023-03-29T12:34:51.607Z,67.70
2023-03-29T12:38:09.705Z,67.70
2023-03-29T12:40:57.454Z,66.80
2023-03-29T12:43:43.498Z,66.70
2023-03-29T12:46:35.407Z,68.60
2023-03-29T12:49:21.240Z,68.20
2023-03-29T12:51:48.907Z,69.20
2023-03-29T12:54:21.628Z,68.70
2023-03-29T12:56:55.081Z,69.40
2023-03-29T12:59:46.902Z,70.60
2023-03-29T13:02:14.001Z,70.10
2023-03-29T13:04:44.047Z,69.20
2023-03-29T13:07:22.886Z,70.70
2023-03-29T13:10:08.170Z,68.50
2023-03-29T13:12:34.878Z,68.60
2023-03-29T13:15:07.850Z,68.80
2023-03-29T13:17:50.169Z,69.00
2023-03-29T13:20:54.239Z,68.80
2023-03-29T13:23:56.389Z,67.70
2023-03-29T13:26:44.846Z,67.30
2023-03-29T13:29:34.373Z,69.00
2023-03-29T13:32:27.112Z,66.80
2023-03-29T13:35:15.645Z,66.90
2023-03-29T13:38:07.261Z,66.50
2023-03-29T13:40:40.090Z,66.90
2023-03-29T13:43:24.921Z,67.80
2023-03-29T13:46:05.774Z,67.10
2023-03-29T13:48:46.346Z,67.20
2023-03-29T13:51:18.995Z,67.20
2023-03-29T13:54:00.657Z,68.00
2023-03-29T13:56:34.523Z,67.40
2023-03-29T13:59:18.880Z,67.40
2023-03-29T14:01:48.398Z,67.50
2023-03-29T14:04:25.250Z,66.90
2023-03-29T14:06:55.688Z,67.20
2023-03-29T14:09:29.924Z,67.40
2023-03-29T14:11:58.798Z,67.00
2023-03-29T14:14:29.538Z,67.10
2023-03-29T14:16:57.245Z,67.60
2023-03-29T14:19:33.102Z,67.00
2023-03-29T14:22:01.688Z,67.50
2023-03-29T14:24:53.075Z,68.50
2023-03-29T14:27:21.345Z,68.60
2023-03-29T14:29:51.101Z,68.20
2023-03-29T14:32:27.417Z,69.10
2023-03-29T14:34:54.547Z,69.40
2023-03-29T14:37:29.709Z,70.50
2023-03-29T14:39:58.737Z,70.90
2023-03-29T14:42:28.240Z,70.80
2023-03-29T14:45:04.044Z,70.30
2023-03-29T14:47:33.039Z,70.00
2023-03-29T14:50:01.654Z,69.90
2023-03-29T14:52:30.310Z,69.80
2023-03-29T14:55:00.061Z,68.70
2023-03-29T14:57:32.490Z,68.20
2023-03-29T15:00:01.889Z,68.40
2023-03-29T15:02:31.355Z,67.00
2023-03-29T15:05:30.295Z,67.20
2023-03-29T15:07:57.222Z,67.40
2023-03-29T15:10:24.341Z,68.30
2023-03-29T15:12:51.581Z,68.80
2023-03-29T15:15:18.782Z,69.50
2023-03-29T15:17:50.955Z,69.90
2023-03-29T15:20:39.639Z,69.90
2023-03-29T15:23:15.382Z,70.80
2023-03-29T15:26:07.349Z,72.20
2023-03-29T15:28:35.662Z,71.90
2023-03-29T15:35:26.219Z,71.60
2023-03-29T15:37:53.872Z,71.90
2023-03-29T15:40:28.209Z,72.30
2023-03-29T15:42:56.494Z,73.00
2023-03-29T15:45:23.439Z,73.40
2023-03-29T15:47:50.287Z,72.90
2023-03-29T15:50:19.706Z,73.00
2023-03-29T15:52:46.495Z,72.80
2023-03-29T15:55:13.456Z,72.40
2023-03-29T15:57:42.621Z,72.70
2023-03-29T16:00:17.218Z,72.80
2023-03-29T16:02:44.212Z,72.60
2023-03-29T16:05:13.147Z,73.60
2023-03-29T16:07:40.329Z,71.60
2023-03-29T16:10:07.643Z,71.40
2023-03-29T16:12:36.986Z,71.70
2023-03-29T16:15:12.195Z,73.00
2023-03-29T16:17:39.036Z,73.00
2023-03-29T16:20:07.468Z,73.30
2023-03-29T16:22:34.566Z,72.90
2023-03-29T16:25:01.560Z,73.70
2023-03-29T16:27:28.485Z,75.40
2023-03-29T16:29:55.479Z,75.40
2023-03-29T16:32:22.936Z,75.30
2023-03-29T16:34:49.850Z,75.30
2023-03-29T16:37:16.705Z,75.50
2023-03-29T16:39:43.449Z,75.60
2023-03-29T16:42:12.138Z,76.40
2023-03-29T16:44:39.194Z,76.70
2023-03-29T16:47:06.216Z,77.50
2023-03-29T16:49:32.995Z,77.60
2023-03-29T16:51:59.735Z,78.10
2023-03-29T16:54:29.579Z,78.00
2023-03-29T16:56:56.341Z,78.70
2023-03-29T16:59:23.336Z,79.10
2023-03-29T17:01:50.304Z,79.70
2023-03-29T17:04:17.132Z,80.40
2023-03-29T17:06:44.041Z,81.00
2023-03-29T17:09:10.853Z,81.60
2023-03-29T17:11:37.762Z,82.00
2023-03-29T17:14:04.659Z,81.50
2023-03-29T17:16:31.887Z,81.90
2023-03-29T17:19:02.412Z,81.80
2023-03-29T17:21:29.781Z,81.50
2023-03-29T17:23:56.708Z,82.10
2023-03-29T17:26:23.488Z,82.50
2023-03-29T17:28:50.475Z,82.60
2023-03-29T17:31:19.260Z,82.80
2023-03-29T17:33:47.320Z,83.10
2023-03-29T17:36:14.607Z,83.10
2023-03-29T17:38:42.750Z,83.10
2023-03-29T17:41:09.881Z,83.30
2023-03-29T17:43:36.884Z,83.40
2023-03-29T17:46:03.854Z,83.50
2023-03-29T17:48:32.775Z,83.50
2023-03-29T17:50:59.600Z,83.90
2023-03-29T17:53:26.949Z,84.10
2023-03-29T17:55:53.776Z,84.20
2023-03-29T17:58:20.754Z,83.90
2023-03-29T18:00:47.624Z,84.30
2023-03-29T18:03:14.886Z,84.00
2023-03-29T18:05:41.868Z,84.20
2023-03-29T18:08:08.706Z,84.50
2023-03-29T18:10:36.829Z,84.30
2023-03-29T18:13:03.829Z,84.70
2023-03-29T18:15:30.512Z,84.40
2023-03-29T18:17:57.413Z,84.80
2023-03-29T18:20:24.235Z,85.30
2023-03-29T18:22:51.054Z,85.30
2023-03-29T18:25:18.275Z,85.70
2023-03-29T18:27:45.300Z,85.30
2023-03-29T18:30:13.744Z,85.60
2023-03-29T18:32:40.868Z,86.30
2023-03-29T18:35:08.135Z,86.10
2023-03-29T18:37:34.881Z,86.50
2023-03-29T18:40:02.100Z,86.90
2023-03-29T18:42:29.025Z,86.70
2023-03-29T18:44:56.148Z,87.50
2023-03-29T18:47:22.863Z,87.50
2023-03-29T18:49:49.767Z,87.60
2023-03-29T18:52:16.511Z,87.50
2023-03-29T18:54:43.339Z,87.60
2023-03-29T18:57:10.423Z,87.10
2023-03-29T18:59:37.244Z,86.90
2023-03-29T19:02:04.344Z,87.80
2023-03-29T19:04:31.213Z,87.30
2023-03-29T19:06:59.712Z,87.70
2023-03-29T19:09:27.657Z,87.80
2023-03-29T19:11:54.419Z,88.40
2023-03-29T19:14:25.192Z,88.00
2023-03-29T19:16:52.729Z,88.20
2023-03-29T19:19:21.694Z,88.60
2023-03-29T19:21:49.480Z,88.40
2023-03-29T19:24:16.586Z,88.40
2023-03-29T19:26:44.341Z,88.60
2023-03-29T19:29:11.564Z,88.10
2023-03-29T19:31:38.720Z,87.90
2023-03-29T19:34:11.096Z,87.60
2023-03-29T19:36:38.663Z,87.30
2023-03-29T19:39:05.905Z,88.10
2023-03-29T19:41:33.006Z,88.10
2023-03-29T19:43:59.870Z,87.40
2023-03-29T19:46:28.267Z,86.70
2023-03-29T19:48:56.143Z,86.20
2023-03-29T19:51:23.533Z,87.30
2023-03-29T19:53:50.486Z,87.90
2023-03-29T19:56:17.764Z,87.60
2023-03-29T19:58:44.630Z,87.80
2023-03-29T20:01:11.406Z,88.90
2023-03-29T20:03:38.696Z,88.00
2023-03-29T20:06:06.447Z,89.10
2023-03-29T20:08:33.343Z,88.70
2023-03-29T20:11:02.817Z,88.40
2023-03-29T20:13:38.075Z,88.50
2023-03-29T20:16:11.046Z,89.20
2023-03-29T20:18:40.906Z,89.60
2023-03-29T20:21:08.710Z,89.90
2023-03-29T20:23:35.917Z,89.40
2023-03-29T20:26:03.231Z,90.10
2023-03-29T20:28:29.987Z,88.90
2023-03-29T20:30:56.834Z,88.50
2023-03-29T20:33:23.941Z,89.70
2023-03-29T20:35:50.751Z,89.50
2023-03-29T20:38:17.557Z,90.00
2023-03-29T20:40:44.837Z,90.70
2023-03-29T20:43:13.460Z,90.90
2023-03-29T20:45:52.664Z,90.90
2023-03-29T20:48:22.921Z,89.90
2023-03-29T20:50:50.393Z,90.00
2023-03-29T20:53:18.392Z,90.30
2023-03-29T20:55:45.365Z,90.00
2023-03-29T20:58:12.181Z,90.10
2023-03-29T21:00:40.360Z,90.40
2023-03-29T21:03:08.540Z,90.30
2023-03-29T21:05:35.555Z,90.60
2023-03-29T21:08:04.407Z,90.20
2023-03-29T21:10:31.637Z,90.10
2023-03-29T21:13:00.264Z,89.20
2023-03-29T21:15:28.670Z,89.40
2023-03-29T21:17:55.945Z,90.10
2023-03-29T21:20:22.877Z,89.90
2023-03-29T21:22:49.630Z,89.60
2023-03-29T21:25:16.508Z,89.80
2023-03-29T21:27:43.640Z,90.60
2023-03-29T21:30:11.208Z,90.30
2023-03-29T21:32:38.211Z,89.90
2023-03-29T21:35:05.625Z,90.00
2023-03-29T21:37:32.337Z,90.40
2023-03-29T21:39:59.058Z,90.70
2023-03-29T21:42:26.001Z,90.60
2023-03-29T21:44:52.733Z,91.30
2023-03-29T21:47:19.556Z,91.20
2023-03-29T21:49:46.272Z,91.50
2023-03-29T21:52:13.059Z,91.60
2023-03-29T21:54:39.803Z,91.20
2023-03-29T21:57:06.709Z,91.40
2023-03-29T21:59:33.532Z,90.80
2023-03-29T22:02:00.486Z,89.90
2023-03-29T22:04:36.615Z,91.40
2023-03-29T22:07:04.976Z,91.70
2023-03-29T22:09:34.734Z,92.60
2023-03-29T22:12:02.041Z,92.60
2023-03-29T22:14:30.179Z,92.50
2023-03-29T22:16:57.219Z,92.50
2023-03-29T22:19:24.123Z,92.50
2023-03-29T22:21:51.357Z,92.20
2023-03-29T22:24:18.650Z,92.30
2023-03-29T22:26:45.835Z,92.60
2023-03-29T22:29:12.591Z,93.00
2023-03-29T22:31:39.685Z,92.70
2023-03-29T22:34:07.552Z,92.60
2023-03-29T22:36:36.113Z,92.70
2023-03-29T22:39:03.748Z,93.10
2023-03-29T22:41:30.815Z,93.40
2023-03-29T22:43:59.223Z,93.10
2023-03-29T22:46:26.341Z,93.00
2023-03-29T22:48:53.460Z,92.90
2023-03-29T22:51:20.682Z,92.60
2023-03-29T22:53:47.912Z,92.50
2023-03-29T22:56:16.007Z,92.50
2023-03-29T22:58:43.564Z,92.60
2023-03-29T23:01:10.670Z,92.40
2023-03-29T23:03:37.482Z,92.20
2023-03-29T23:06:04.561Z,92.00
2023-03-29T23:08:33.124Z,92.20
2023-03-29T23:11:00.328Z,92.10
2023-03-29T23:13:29.097Z,92.30
2023-03-29T23:16:00.835Z,92.40
2023-03-29T23:18:30.530Z,92.30
2023-03-29T23:20:58.848Z,92.60
2023-03-29T23:23:28.084Z,93.10
2023-03-29T23:25:55.720Z,93.30
2023-03-29T23:28:26.964Z,93.00
2023-03-29T23:31:00.982Z,92.60
2023-03-29T23:33:30.507Z,92.30
2023-03-29T23:35:57.319Z,92.40
2023-03-29T23:38:24.192Z,92.40
2023-03-29T23:40:58.629Z,92.40
2023-03-29T23:43:35.662Z,92.20
2023-03-29T23:46:11.933Z,92.40
2023-03-29T23:48:39.071Z,92.30
2023-03-29T23:51:08.350Z,92.40
2023-03-29T23:53:35.282Z,92.50
2023-03-29T23:56:03.950Z,92.40
2023-03-29T23:58:33.489Z,92.60
